Accueil
METAR-TAF:

METAR-TAF

Aéroports :

Algésiras, Espagne

latitude: 36-07-44N, longitude: 05-26-28W, altitude: 30 m

Observation

Le bulletin a été fait il y a 44 minutes, à 14:00 UTC
Vent 6 kt de est/nord-est, variant entre nord/nord-est et est
Température 16°C
Humidité 68%
Pression 1027 hPa
Visibilité 10 km ou plus
pas de nuages en-dessous de 1500 mètres et pas de cumulonimbus.

METAR: LEAG 171400Z AUTO 06006KT 020V080 CAVOK 16/10 Q1027

Heure: 15:44 (14:44 UTC)


TAF: absent

Observations et prévisions météorologiques de plus de 4000 aéroports (messages METAR et TAF).

Les stations disponibles sont représentées par des disques jaunes et rouges sur la carte.

Passer la souris dessus pour voir le nom de la station.

Cliquer dessus pour voir les observations et prévisions météorologiques.

Pour changer de carte: cliquez sur les boutons verts avec une croix noire pour zoomer, sur le bouton vert avec un tiret pour effectuer un zoom arrière, ou sur les flèches vertes pour les cartes adjacentes.


METAR-TAF: